KSHN

Sanderson Field Airport

Shelton, Washington, USA
METAR KSHN 181441Z AUTO 26005KT 2SM BR OVC002 12/11 A3024 RMK AO2 T01170106
Observed Flight Rules
Aug-18 @ 14:41 UTC (10 minutes ago) Instrument Flight Rules
Wind Visibility Clouds Conditions
260° at 5 knots 2 miles
  • Overcast at 200' AGL
  • Mist
Temperatures Readings
Current 12°C / 54°F
Dewpoint 11°C / 52°F
Humidity 94%
Altimeter 30.24" Hg
Pressure 1024 hPa
Elevation 82
METAR KSHN 181441Z AUTO 26005KT 2SM BR OVC002 12/11 A3024 RMK AO2 T01170106
Observed Flight Rules
Aug-18 @ 14:41 UTC
(10 minutes ago)
LIFR
Wind Visibility
260° at 5 knots 2 miles
Clouds
  • Overcast at 200' AGL
Conditions
  • Mist
Temperature Dewpoint
12°C / 54°F 11°C / 52°F
Humidity Altimeter Pressure
94% 30.24" Hg 1024 hPa